Time;durP1;ratioP1;P1;durP2;ratioP2;P2;SDS_P1;SDS_P2;PMS_P1;PMS_P2;Temp;Humidity;BMP_temperature;BMP_pressure;BME280_temperature;BME280_humidity;BME280_pressure;Samples;Min_cycle;Max_cycle;Signal;HPM_P1;HPM_P2
2022/03/22 00:00:25;;;;;;;35.85;33.05;;;5.10;66.40;;;;;;5095324;28;20204;-72
2022/03/22 00:02:53;;;;;;;33.20;30.50;;;5.10;66.20;;;;;;5095419;28;20703;-72
2022/03/22 00:05:20;;;;;;;33.25;30.85;;;5.10;66.10;;;;;;5095529;28;20204;-72
2022/03/22 00:07:47;;;;;;;35.10;32.20;;;5.00;66.40;;;;;;5095336;28;20202;-72
2022/03/22 00:10:15;;;;;;;33.85;30.70;;;4.90;66.90;;;;;;5095080;28;20722;-72
2022/03/22 00:12:43;;;;;;;33.72;31.02;;;4.90;66.80;;;;;;5095251;28;20223;-72
2022/03/22 00:15:12;;;;;;;33.78;31.17;;;4.90;66.40;;;;;;5095221;28;20206;-72
2022/03/22 00:17:39;;;;;;;33.85;31.35;;;4.90;66.30;;;;;;5095247;28;20223;-72
2022/03/22 00:20:10;;;;;;;34.35;31.52;;;4.80;66.90;;;;;;5094779;28;20673;-72
2022/03/22 00:22:37;;;;;;;34.08;31.27;;;4.70;67.10;;;;;;5095149;28;20716;-72
2022/03/22 00:25:04;;;;;;;33.45;30.83;;;4.60;67.50;;;;;;5094845;28;20203;-71
2022/03/22 00:27:50;;;;;;;34.47;31.95;;;4.60;68.20;;;;;;5094967;28;20217;-72
2022/03/22 00:30:18;;;;;;;34.85;32.25;;;4.60;67.20;;;;;;5094834;28;20660;-72
2022/03/22 00:32:45;;;;;;;33.60;31.10;;;4.60;67.50;;;;;;5094701;28;20302;-72
2022/03/22 00:35:12;;;;;;;32.72;30.13;;;4.50;67.90;;;;;;5094771;28;20199;-72
2022/03/22 00:37:41;;;;;;;34.30;31.50;;;4.50;67.70;;;;;;5094602;28;20219;-72
2022/03/22 00:40:11;;;;;;;33.17;30.67;;;4.40;68.10;;;;;;5094455;28;20198;-72
2022/03/22 00:42:37;;;;;;;34.33;31.60;;;4.40;68.00;;;;;;5094545;28;20744;-72
2022/03/22 00:45:05;;;;;;;32.40;30.10;;;4.40;67.80;;;;;;5094635;28;20548;-72
2022/03/22 00:47:34;;;;;;;32.55;29.95;;;4.40;68.00;;;;;;5093981;28;20195;-72
2022/03/22 00:50:00;;;;;;;33.75;31.13;;;4.30;68.20;;;;;;5094333;28;20271;-72
2022/03/22 00:52:27;;;;;;;33.08;30.63;;;4.30;68.50;;;;;;5094343;28;20219;-72
2022/03/22 00:54:54;;;;;;;34.97;32.38;;;4.30;68.30;;;;;;5094492;28;20198;-72
2022/03/22 00:57:21;;;;;;;33.92;31.20;;;4.20;68.70;;;;;;5094079;28;20223;-72
2022/03/22 01:00:04;;;;;;;34.00;31.20;;;4.20;68.70;;;;;;5094173;28;20202;-72
2022/03/22 01:02:35;;;;;;;33.45;30.80;;;4.20;68.80;;;;;;5094382;28;20258;-72
2022/03/22 01:05:07;;;;;;;33.97;31.38;;;4.20;68.80;;;;;;5094203;28;20199;-72
2022/03/22 01:07:34;;;;;;;34.15;31.55;;;4.20;68.80;;;;;;5094278;28;20199;-72
2022/03/22 01:10:02;;;;;;;34.42;31.73;;;4.10;70.10;;;;;;5093870;28;20596;-72
2022/03/22 01:12:29;;;;;;;32.70;30.30;;;4.10;71.40;;;;;;5094337;28;20298;-72
2022/03/22 01:14:56;;;;;;;33.83;31.27;;;4.00;71.50;;;;;;5094072;28;20549;-72
2022/03/22 01:17:23;;;;;;;34.55;31.90;;;4.00;70.00;;;;;;5093857;28;20215;-72
2022/03/22 01:19:51;;;;;;;34.20;31.50;;;4.00;69.50;;;;;;5093631;28;20208;-72
2022/03/22 01:22:18;;;;;;;34.20;31.50;;;4.10;69.40;;;;;;5093827;28;20216;-72
2022/03/22 01:24:45;;;;;;;34.20;31.50;;;4.00;69.40;;;;;;5093773;28;20725;-72
2022/03/22 01:27:13;;;;;;;33.75;30.95;;;4.00;69.30;;;;;;5093826;28;20279;-72
2022/03/22 01:29:40;;;;;;;33.38;30.63;;;4.00;68.90;;;;;;5093455;28;20786;-72
2022/03/22 01:32:08;;;;;;;34.65;31.92;;;3.90;69.00;;;;;;5093617;28;20577;-72
2022/03/22 01:34:35;;;;;;;35.33;32.45;;;3.90;69.20;;;;;;5093717;28;20201;-72
2022/03/22 01:37:04;;;;;;;35.25;32.47;;;3.80;69.50;;;;;;5093529;28;20216;-72
2022/03/22 01:39:30;;;;;;;34.45;31.58;;;3.90;69.50;;;;;;5093399;28;20234;-72
2022/03/22 01:41:58;;;;;;;34.72;32.10;;;3.80;69.80;;;;;;5093582;28;20215;-72
2022/03/22 01:44:25;;;;;;;34.42;31.60;;;3.80;69.80;;;;;;5093420;28;20195;-72
2022/03/22 01:46:55;;;;;;;34.17;31.58;;;3.80;69.70;;;;;;5093568;28;20198;-72
2022/03/22 01:49:22;;;;;;;33.67;31.08;;;3.70;69.90;;;;;;5093202;28;20199;-72
2022/03/22 01:51:51;;;;;;;34.00;31.50;;;3.70;70.00;;;;;;5093394;28;20222;-72
2022/03/22 01:54:20;;;;;;;33.70;31.10;;;3.70;69.90;;;;;;5093064;28;20213;-72
2022/03/22 01:56:47;;;;;;;34.38;31.70;;;3.70;69.90;;;;;;5093065;28;20215;-72
2022/03/22 01:59:14;;;;;;;33.35;30.83;;;3.60;70.30;;;;;;5091936;28;20602;-72
2022/03/22 02:07:12;;;;;;;35.25;32.40;;;3.50;70.90;;;;;;5093084;28;20757;-72
2022/03/22 02:09:40;;;;;;;34.55;31.73;;;3.40;70.90;;;;;;5092867;28;20277;-72
2022/03/22 02:12:08;;;;;;;34.75;32.08;;;3.40;70.90;;;;;;5092869;28;20696;-72
2022/03/22 02:14:35;;;;;;;35.20;32.47;;;3.40;71.00;;;;;;5093014;28;20556;-72
2022/03/22 02:17:07;;;;;;;34.22;31.13;;;3.40;71.20;;;;;;5092883;28;20218;-72
2022/03/22 02:19:36;;;;;;;35.90;32.88;;;3.40;71.30;;;;;;5092585;28;20218;-72
2022/03/22 02:22:09;;;;;;;35.65;32.78;;;3.40;71.40;;;;;;5092845;28;20741;-72
2022/03/22 02:24:38;;;;;;;34.33;31.60;;;3.40;71.30;;;;;;5092870;28;20264;-72
2022/03/22 02:27:07;;;;;;;35.50;32.75;;;3.40;71.20;;;;;;5092777;28;20681;-72
2022/03/22 02:29:34;;;;;;;33.22;30.63;;;3.50;70.90;;;;;;5092636;28;20281;-72
2022/03/22 02:32:01;;;;;;;35.40;32.35;;;3.40;70.90;;;;;;5092630;28;20306;-72
2022/03/22 02:34:28;;;;;;;36.17;33.33;;;3.40;71.20;;;;;;5092654;28;20210;-72
2022/03/22 02:36:55;;;;;;;35.30;32.40;;;3.40;71.10;;;;;;5092595;28;20271;-72
2022/03/22 02:39:22;;;;;;;36.00;33.00;;;3.30;71.30;;;;;;5092477;28;20207;-72
2022/03/22 02:41:51;;;;;;;35.67;32.83;;;3.30;72.10;;;;;;5092569;28;20730;-72
2022/03/22 02:44:19;;;;;;;34.35;31.73;;;3.30;72.40;;;;;;5092668;28;20210;-72
2022/03/22 02:46:46;;;;;;;34.50;31.80;;;3.30;72.10;;;;;;5092524;28;20198;-72
2022/03/22 02:49:13;;;;;;;34.92;32.22;;;3.20;72.10;;;;;;5092382;28;20221;-72
2022/03/22 02:51:41;;;;;;;35.95;33.13;;;3.10;72.40;;;;;;5092663;28;20195;-72
2022/03/22 02:54:08;;;;;;;35.70;32.85;;;3.00;72.70;;;;;;5092359;28;20213;-72
2022/03/22 02:56:35;;;;;;;34.83;32.13;;;3.10;72.50;;;;;;5092646;28;20197;-72
2022/03/22 02:59:03;;;;;;;36.60;32.95;;;3.10;72.90;;;;;;5092115;28;20218;-72
2022/03/22 03:01:32;;;;;;;36.40;33.40;;;3.10;72.40;;;;;;5092193;28;20275;-72
2022/03/22 03:04:00;;;;;;;35.00;32.20;;;3.10;72.10;;;;;;5092422;28;20206;-72
2022/03/22 03:06:28;;;;;;;33.83;31.17;;;3.10;72.00;;;;;;5092459;28;20549;-72
2022/03/22 03:08:57;;;;;;;36.22;33.25;;;3.10;72.10;;;;;;5092463;28;20726;-72
2022/03/22 03:11:24;;;;;;;36.90;33.97;;;3.00;74.10;;;;;;5096179;28;20206;-72
2022/03/22 03:16:39;;;;;;;35.13;32.50;;;2.90;73.60;;;;;;5096582;28;20668;-72
2022/03/22 03:19:06;;;;;;;35.10;32.25;;;2.90;73.40;;;;;;5096132;28;20214;-72
2022/03/22 03:21:33;;;;;;;36.28;33.38;;;2.80;73.50;;;;;;5096129;28;20278;-72
2022/03/22 03:24:00;;;;;;;35.90;33.10;;;2.90;73.40;;;;;;5096202;28;20281;-72
2022/03/22 03:26:27;;;;;;;36.08;33.05;;;2.90;73.00;;;;;;5096166;28;20196;-72
2022/03/22 03:28:53;;;;;;;36.55;33.47;;;2.90;73.10;;;;;;5096134;28;20379;-72
2022/03/22 03:31:20;;;;;;;36.08;33.15;;;2.80;73.30;;;;;;5095935;28;20203;-72
2022/03/22 03:33:49;;;;;;;35.90;32.80;;;2.70;73.50;;;;;;5096094;28;20193;-72
2022/03/22 03:36:16;;;;;;;34.88;32.17;;;2.80;73.50;;;;;;5096028;28;20230;-72
2022/03/22 03:38:43;;;;;;;36.17;33.38;;;2.90;73.40;;;;;;5095761;28;20214;-72
2022/03/22 03:43:54;;;;;;;36.97;33.53;;;2.90;73.70;;;;;;5096111;28;20247;-72
2022/03/22 03:49:07;;;;;;;35.58;32.88;;;3.00;72.90;;;;;;5095728;28;20736;-72
2022/03/22 03:51:34;;;;;;;36.65;33.65;;;3.00;72.50;;;;;;5095613;28;20657;-72
2022/03/22 03:54:01;;;;;;;38.38;34.92;;;2.90;72.90;;;;;;5095449;28;20202;-72
2022/03/22 03:56:28;;;;;;;37.85;34.92;;;2.90;73.20;;;;;;5095594;28;20195;-72
2022/03/22 03:58:56;;;;;;;35.70;32.65;;;2.90;73.20;;;;;;5095339;28;20695;-72
2022/03/22 04:01:24;;;;;;;36.63;33.45;;;3.00;72.70;;;;;;5095298;28;20208;-72
2022/03/22 04:03:51;;;;;;;37.65;34.35;;;2.90;72.70;;;;;;5095452;28;20198;-72
2022/03/22 04:06:19;;;;;;;38.00;34.70;;;3.00;72.70;;;;;;5095373;28;20203;-72
2022/03/22 04:08:46;;;;;;;38.15;35.05;;;2.90;72.90;;;;;;5095439;28;20541;-72
2022/03/22 04:11:14;;;;;;;37.33;34.22;;;2.80;73.20;;;;;;5095194;28;20293;-72
2022/03/22 04:13:40;;;;;;;36.78;33.85;;;2.80;73.10;;;;;;5095298;28;20334;-72
2022/03/22 04:16:07;;;;;;;38.58;35.28;;;2.70;73.20;;;;;;5095140;28;20198;-72
2022/03/22 04:18:34;;;;;;;37.10;34.00;;;2.70;74.00;;;;;;5094868;28;20703;-72
2022/03/22 04:21:02;;;;;;;35.95;32.85;;;2.70;74.30;;;;;;5094017;28;20199;-72
2022/03/22 04:23:30;;;;;;;37.70;34.58;;;2.70;74.20;;;;;;5095015;28;20245;-72
2022/03/22 04:25:57;;;;;;;38.35;35.15;;;2.70;73.90;;;;;;5095100;28;20200;-72
2022/03/22 04:33:53;;;;;;;37.58;34.63;;;2.60;74.30;;;;;;5094991;28;20216;-72
2022/03/22 04:36:20;;;;;;;35.10;32.30;;;2.60;74.60;;;;;;5094727;28;20203;-72
2022/03/22 04:38:48;;;;;;;39.50;36.28;;;2.70;74.80;;;;;;5094702;28;20309;-72
2022/03/22 04:41:15;;;;;;;37.35;34.33;;;2.70;74.50;;;;;;5094488;28;20197;-72
2022/03/22 04:43:42;;;;;;;37.92;34.45;;;2.70;74.50;;;;;;5094551;28;20225;-72
2022/03/22 04:46:09;;;;;;;38.20;35.28;;;2.70;75.10;;;;;;5094690;28;20204;-72
2022/03/22 04:48:36;;;;;;;40.03;36.85;;;2.70;74.60;;;;;;5094503;28;20194;-72
2022/03/22 04:59:24;;;;;;;38.85;35.45;;;2.60;75.60;;;;;;5093725;28;20225;-72
2022/03/22 05:01:51;;;;;;;40.55;37.45;;;2.60;75.30;;;;;;5094438;28;20222;-72
2022/03/22 05:04:18;;;;;;;38.50;35.20;;;2.60;75.00;;;;;;5094203;28;20205;-72
2022/03/22 05:06:45;;;;;;;39.75;36.55;;;2.60;75.00;;;;;;5094151;28;20194;-72
2022/03/22 05:09:14;;;;;;;39.50;36.28;;;2.60;75.00;;;;;;5094233;28;20217;-72
2022/03/22 05:11:41;;;;;;;37.95;35.15;;;2.60;74.90;;;;;;5094003;28;20581;-72
2022/03/22 05:14:08;;;;;;;37.38;34.47;;;2.60;74.20;;;;;;5094195;28;20289;-72
2022/03/22 05:16:36;;;;;;;39.05;35.92;;;2.70;74.10;;;;;;5094014;28;20623;-72
2022/03/22 05:19:05;;;;;;;38.00;34.78;;;2.70;74.00;;;;;;5093780;28;20227;-72
2022/03/22 05:21:32;;;;;;;38.60;35.20;;;2.70;73.70;;;;;;5093827;28;20198;-72
2022/03/22 05:24:00;;;;;;;39.08;35.70;;;2.70;73.80;;;;;;5093994;28;20575;-72
2022/03/22 05:26:28;;;;;;;38.78;35.45;;;2.70;73.80;;;;;;5093853;28;20209;-71
2022/03/22 05:28:55;;;;;;;41.03;37.60;;;2.60;74.30;;;;;;5093760;28;20200;-72
2022/03/22 05:31:22;;;;;;;38.65;35.55;;;2.60;74.60;;;;;;5093535;28;20204;-72
2022/03/22 05:33:49;;;;;;;39.78;36.60;;;2.60;74.60;;;;;;5093556;28;20288;-72
2022/03/22 05:36:16;;;;;;;39.60;36.10;;;2.70;74.20;;;;;;5093656;28;20194;-72
2022/03/22 05:38:43;;;;;;;39.05;35.97;;;2.60;76.50;;;;;;5093398;28;20221;-72
2022/03/22 05:41:10;;;;;;;39.53;36.03;;;2.60;76.80;;;;;;5093462;28;20292;-72
2022/03/22 05:43:39;;;;;;;39.30;36.20;;;2.60;78.30;;;;;;5093520;28;20220;-71
2022/03/22 05:46:06;;;;;;;38.03;34.67;;;2.60;76.00;;;;;;5093416;28;20716;-72
2022/03/22 05:48:33;;;;;;;38.05;34.92;;;2.70;75.00;;;;;;5093348;28;20640;-72
2022/03/22 05:50:59;;;;;;;38.70;35.40;;;2.70;74.60;;;;;;5093281;28;20255;-72
2022/03/22 05:53:26;;;;;;;40.20;36.97;;;2.70;74.10;;;;;;5093107;28;20224;-72
2022/03/22 05:55:53;;;;;;;39.63;36.17;;;2.70;74.20;;;;;;5093302;28;20207;-72
2022/03/22 05:58:20;;;;;;;38.30;35.10;;;2.80;74.10;;;;;;5092943;28;20232;-72
2022/03/22 06:00:48;;;;;;;40.60;37.10;;;2.90;73.70;;;;;;5092946;28;20198;-72
2022/03/22 06:03:16;;;;;;;39.10;35.85;;;2.90;73.60;;;;;;5093180;28;20226;-72
2022/03/22 06:05:43;;;;;;;38.17;35.03;;;2.90;73.50;;;;;;5093189;28;20214;-72
2022/03/22 06:08:10;;;;;;;38.75;35.75;;;2.90;73.50;;;;;;5093045;28;20195;-72
2022/03/22 06:10:37;;;;;;;40.35;36.88;;;3.00;73.50;;;;;;5092969;28;20725;-72
2022/03/22 06:13:05;;;;;;;38.88;35.72;;;3.00;73.10;;;;;;5092805;28;20226;-72
2022/03/22 06:15:33;;;;;;;39.53;36.15;;;3.00;73.00;;;;;;5092951;28;20293;-72
2022/03/22 06:18:03;;;;;;;41.03;37.33;;;3.00;72.80;;;;;;5092636;28;20221;-72
2022/03/22 06:20:32;;;;;;;39.13;35.95;;;3.20;72.70;;;;;;5092757;28;20198;-72
2022/03/22 06:23:00;;;;;;;40.33;37.03;;;3.20;72.50;;;;;;5092623;28;20229;-72
2022/03/22 06:25:27;;;;;;;39.83;36.50;;;3.30;72.60;;;;;;5092846;28;20663;-72
2022/03/22 06:27:55;;;;;;;40.55;36.95;;;3.40;72.40;;;;;;5092693;28;20191;-72
2022/03/22 06:30:23;;;;;;;37.25;33.85;;;3.50;72.00;;;;;;5092468;28;20200;-72
2022/03/22 06:32:51;;;;;;;42.90;36.67;;;3.60;71.70;;;;;;5092654;28;20223;-72
2022/03/22 06:35:23;;;;;;;39.63;36.35;;;3.60;71.60;;;;;;5092738;28;20210;-72
2022/03/22 06:37:51;;;;;;;41.80;37.78;;;3.70;71.60;;;;;;5092721;28;20198;-72
2022/03/22 06:40:20;;;;;;;39.03;35.67;;;3.70;71.50;;;;;;5092528;28;20648;-72
2022/03/22 06:42:47;;;;;;;37.90;34.90;;;3.90;71.10;;;;;;5092552;28;20227;-72
2022/03/22 06:45:15;;;;;;;41.97;38.38;;;4.00;70.80;;;;;;5092287;28;20198;-72
2022/03/22 06:47:42;;;;;;;41.00;37.58;;;4.10;70.60;;;;;;5092575;28;20271;-72
2022/03/22 06:50:11;;;;;;;41.85;38.20;;;4.20;70.30;;;;;;5092406;28;20191;-72
2022/03/22 06:52:39;;;;;;;39.15;35.88;;;4.40;69.80;;;;;;5092417;28;20217;-72
2022/03/22 06:55:08;;;;;;;38.88;35.67;;;4.50;69.10;;;;;;5092482;28;20237;-72
2022/03/22 06:57:36;;;;;;;40.00;36.75;;;4.70;68.50;;;;;;5092447;28;20195;-72
2022/03/22 07:00:08;;;;;;;41.53;37.25;;;4.70;67.80;;;;;;5092111;28;20697;-72
2022/03/22 07:02:36;;;;;;;42.45;38.95;;;4.90;67.40;;;;;;5092602;28;20526;-72
2022/03/22 07:05:03;;;;;;;41.58;38.03;;;4.90;67.20;;;;;;5092356;28;20213;-72
2022/03/22 07:07:30;;;;;;;40.67;37.25;;;5.10;66.90;;;;;;5092494;28;20286;-72
2022/03/22 07:09:59;;;;;;;42.70;38.97;;;5.30;66.30;;;;;;5092264;28;20192;-72
2022/03/22 07:12:26;;;;;;;40.30;36.88;;;5.40;65.60;;;;;;5092353;28;20384;-72
2022/03/22 07:14:53;;;;;;;40.75;37.45;;;5.50;65.10;;;;;;5092447;28;20203;-72
2022/03/22 07:17:20;;;;;;;43.00;39.58;;;5.60;65.10;;;;;;5092373;28;20199;-72
2022/03/22 07:19:48;;;;;;;38.90;35.80;;;5.80;64.80;;;;;;5091917;28;20567;-72
2022/03/22 07:22:14;;;;;;;40.17;36.70;;;5.80;63.90;;;;;;5092227;28;20581;-72
2022/03/22 07:24:41;;;;;;;42.17;38.58;;;6.00;63.60;;;;;;5092426;28;20199;-72
2022/03/22 07:27:10;;;;;;;42.83;38.88;;;6.00;63.10;;;;;;5092308;28;20557;-72
2022/03/22 07:29:36;;;;;;;44.00;40.40;;;6.20;63.10;;;;;;5091989;28;20664;-72
2022/03/22 07:32:04;;;;;;;43.50;39.90;;;6.30;62.80;;;;;;5092058;28;20307;-72
2022/03/22 07:34:31;;;;;;;41.60;38.40;;;6.40;62.30;;;;;;5092024;28;20288;-72
2022/03/22 07:36:58;;;;;;;42.80;39.28;;;6.50;62.30;;;;;;5092152;28;20196;-72
2022/03/22 07:39:27;;;;;;;44.33;40.30;;;6.70;62.10;;;;;;5091776;28;20215;-72
2022/03/22 07:41:54;;;;;;;41.33;37.63;;;6.70;61.60;;;;;;5092144;28;20274;-72
2022/03/22 07:44:22;;;;;;;41.67;38.13;;;6.90;61.30;;;;;;5092086;28;20196;-72
2022/03/22 07:46:49;;;;;;;43.30;39.33;;;7.10;60.70;;;;;;5091968;28;20207;-72
2022/03/22 07:54:44;;;;;;;41.17;37.38;;;7.20;60.60;;;;;;5092042;28;20194;-72
2022/03/22 07:57:11;;;;;;;44.80;40.83;;;7.40;60.20;;;;;;5093815;28;20228;-72
2022/03/22 07:59:40;;;;;;;45.60;41.50;;;7.50;60.10;;;;;;5095069;28;20217;-72
2022/03/22 08:02:07;;;;;;;45.10;41.10;;;7.70;59.70;;;;;;5095465;28;20243;-72
2022/03/22 08:04:33;;;;;;;44.72;40.80;;;7.80;59.70;;;;;;5095471;28;20294;-72
2022/03/22 08:07:00;;;;;;;43.75;39.75;;;7.80;59.70;;;;;;5095414;28;20299;-72
2022/03/22 08:09:27;;;;;;;43.90;39.85;;;7.90;59.60;;;;;;5095146;28;20530;-72
2022/03/22 08:11:54;;;;;;;43.30;39.60;;;8.00;59.30;;;;;;5095156;28;20226;-72
2022/03/22 08:14:21;;;;;;;43.88;39.58;;;8.10;59.00;;;;;;5095203;28;20198;-72
2022/03/22 08:16:50;;;;;;;45.22;41.35;;;8.20;59.70;;;;;;5095275;28;20239;-72
2022/03/22 08:19:18;;;;;;;44.65;40.70;;;8.30;59.10;;;;;;5094881;28;20220;-73
2022/03/22 08:21:46;;;;;;;45.10;40.75;;;8.40;60.40;;;;;;5095072;28;20261;-72
2022/03/22 08:24:13;;;;;;;42.63;38.83;;;8.60;59.20;;;;;;5095109;28;20202;-72
2022/03/22 08:26:40;;;;;;;45.50;41.38;;;8.70;59.60;;;;;;5095107;28;20723;-72
2022/03/22 08:29:08;;;;;;;44.13;39.80;;;8.70;57.40;;;;;;5095033;28;20239;-73
2022/03/22 08:31:35;;;;;;;46.53;42.60;;;8.70;61.00;;;;;;5094907;28;20578;-73
2022/03/22 08:34:04;;;;;;;45.08;41.17;;;8.90;60.30;;;;;;5094930;28;20197;-72
2022/03/22 08:36:33;;;;;;;44.20;40.20;;;9.00;58.00;;;;;;5094954;28;20201;-72
2022/03/22 08:39:00;;;;;;;44.72;40.20;;;9.20;57.00;;;;;;5094685;28;20245;-72
2022/03/22 08:41:27;;;;;;;44.08;40.35;;;9.30;56.10;;;;;;5094560;28;20667;-72
2022/03/22 08:43:54;;;;;;;45.80;41.60;;;9.30;55.70;;;;;;5095046;28;20562;-72
2022/03/22 08:46:24;;;;;;;45.85;41.85;;;9.40;55.30;;;;;;5094701;28;20200;-72
2022/03/22 08:48:52;;;;;;;45.70;41.67;;;9.60;54.40;;;;;;5094627;28;20635;-72
2022/03/22 08:51:24;;;;;;;43.72;40.00;;;9.80;54.40;;;;;;5094329;28;20296;-72
2022/03/22 08:53:51;;;;;;;42.50;39.00;;;9.80;54.30;;;;;;5094154;28;20694;-72
2022/03/22 08:56:18;;;;;;;44.00;40.70;;;9.90;53.90;;;;;;5094491;28;20202;-72
2022/03/22 08:58:45;;;;;;;41.17;37.72;;;10.00;53.70;;;;;;5094109;28;20218;-72
2022/03/22 09:01:13;;;;;;;42.05;38.42;;;10.00;53.80;;;;;;5094342;28;20201;-72
2022/03/22 09:03:39;;;;;;;42.22;38.97;;;10.00;53.80;;;;;;5094184;28;20219;-72
2022/03/22 09:06:08;;;;;;;42.40;39.10;;;10.10;53.50;;;;;;5094164;28;20199;-72
2022/03/22 09:08:38;;;;;;;42.70;38.65;;;10.10;53.50;;;;;;5093748;28;20462;-72
2022/03/22 09:11:05;;;;;;;42.53;39.00;;;10.30;53.30;;;;;;5093994;28;20200;-72
2022/03/22 09:13:33;;;;;;;46.03;41.75;;;10.40;52.80;;;;;;5094288;28;20692;-72
2022/03/22 09:16:00;;;;;;;41.50;38.22;;;10.50;53.00;;;;;;5093976;28;20204;-72
2022/03/22 09:18:27;;;;;;;42.92;39.33;;;10.60;52.60;;;;;;5093759;28;20210;-72
2022/03/22 09:20:54;;;;;;;46.80;42.90;;;10.80;52.20;;;;;;5093932;28;20311;-72
2022/03/22 09:23:22;;;;;;;42.70;39.20;;;10.80;51.90;;;;;;5093929;28;20218;-72
2022/03/22 09:25:50;;;;;;;42.67;39.20;;;10.80;51.90;;;;;;5093945;28;20452;-72
2022/03/22 09:28:17;;;;;;;41.90;38.40;;;10.80;52.00;;;;;;5093957;28;20546;-72
2022/03/22 09:30:45;;;;;;;44.63;40.73;;;10.90;51.90;;;;;;5093604;28;20448;-72
2022/03/22 09:33:12;;;;;;;44.70;40.57;;;11.00;51.50;;;;;;5093813;28;20899;-72
2022/03/22 09:35:39;;;;;;;47.67;43.87;;;11.30;51.30;;;;;;5093713;28;20448;-72
2022/03/22 09:38:06;;;;;;;42.53;38.97;;;11.40;51.40;;;;;;5093601;28;20523;-72
2022/03/22 09:40:33;;;;;;;43.50;40.07;;;11.50;51.00;;;;;;5093438;28;20552;-72
2022/03/22 09:43:02;;;;;;;44.30;40.20;;;11.50;51.30;;;;;;5093507;28;21106;-72
2022/03/22 09:45:31;;;;;;;43.33;39.30;;;11.60;51.20;;;;;;5093389;28;21066;-72
2022/03/22 09:47:59;;;;;;;43.67;39.80;;;11.70;50.80;;;;;;5093506;28;20452;-72
2022/03/22 09:51:44;;;;;;;45.13;41.53;;;11.70;50.80;;;;;;5093132;28;20499;-73
2022/03/22 09:53:15;;;;;;;42.47;38.97;;;11.80;51.00;;;;;;5092894;28;20481;-72
2022/03/22 09:55:42;;;;;;;45.33;41.33;;;12.00;50.60;;;;;;5093249;28;20899;-73
2022/03/22 09:58:10;;;;;;;44.37;40.77;;;12.00;50.50;;;;;;5093063;28;20455;-73
2022/03/22 10:00:38;;;;;;;42.77;39.50;;;12.00;50.80;;;;;;5093052;28;20512;-72
2022/03/22 10:03:05;;;;;;;44.83;40.97;;;12.10;50.70;;;;;;5093169;28;20475;-72
2022/03/22 10:05:32;;;;;;;46.97;43.10;;;12.20;50.30;;;;;;5093185;28;20456;-73
2022/03/22 10:08:00;;;;;;;44.67;40.80;;;12.20;50.70;;;;;;5093234;28;20811;-72
2022/03/22 10:10:28;;;;;;;44.27;40.47;;;12.10;50.60;;;;;;5092830;28;20450;-72
2022/03/22 10:13:00;;;;;;;45.23;41.33;;;12.10;51.00;;;;;;5093135;28;20971;-73
2022/03/22 10:15:33;;;;;;;46.17;42.00;;;12.30;51.00;;;;;;5092977;28;20449;-73
2022/03/22 10:18:06;;;;;;;46.77;42.97;;;12.40;50.40;;;;;;5092848;28;20517;-72
2022/03/22 10:20:35;;;;;;;48.03;43.30;;;12.60;49.80;;;;;;5092009;28;20586;-73
2022/03/22 10:23:05;;;;;;;44.50;40.90;;;12.70;49.30;;;;;;5092849;28;20473;-73
2022/03/22 10:25:33;;;;;;;41.33;38.00;;;12.80;49.20;;;;;;5092828;28;20977;-73
2022/03/22 10:28:02;;;;;;;44.23;39.83;;;12.80;48.80;;;;;;5092901;28;20457;-73
2022/03/22 10:30:31;;;;;;;43.20;39.57;;;12.80;48.60;;;;;;5092564;28;20477;-73
2022/03/22 10:32:59;;;;;;;42.97;39.37;;;13.10;47.60;;;;;;5092713;28;20476;-73
2022/03/22 10:35:27;;;;;;;43.50;39.83;;;13.10;47.80;;;;;;5092576;28;20943;-73
2022/03/22 10:37:56;;;;;;;41.13;37.40;;;13.20;47.60;;;;;;5092677;28;20450;-73
2022/03/22 10:40:27;;;;;;;44.00;39.73;;;13.40;47.00;;;;;;5092332;28;20485;-73
2022/03/22 10:42:58;;;;;;;45.40;41.07;;;13.50;47.10;;;;;;5092686;28;20469;-72
2022/03/22 10:45:27;;;;;;;42.50;38.70;;;13.50;47.10;;;;;;5092656;28;20457;-72
2022/03/22 10:47:56;;;;;;;44.07;40.27;;;13.70;47.10;;;;;;5092497;28;20574;-72
2022/03/22 10:50:23;;;;;;;45.73;41.53;;;13.70;46.80;;;;;;5092315;28;20869;-72
2022/03/22 10:52:55;;;;;;;45.83;41.83;;;13.70;46.90;;;;;;5092399;28;20981;-72
2022/03/22 10:55:24;;;;;;;42.07;38.67;;;13.70;47.10;;;;;;5092731;28;20536;-72
2022/03/22 10:57:53;;;;;;;43.10;39.50;;;13.90;46.90;;;;;;5092583;28;20441;-72
2022/03/22 11:00:20;;;;;;;46.00;41.30;;;13.90;46.50;;;;;;5092241;28;20495;-72
2022/03/22 11:02:53;;;;;;;44.57;40.93;;;14.00;46.20;;;;;;5092408;28;20472;-72
2022/03/22 11:05:25;;;;;;;45.77;42.27;;;14.10;45.70;;;;;;5092524;28;20532;-72
2022/03/22 11:07:53;;;;;;;45.83;41.93;;;14.00;45.50;;;;;;5092485;28;21018;-72
2022/03/22 11:10:25;;;;;;;45.13;41.33;;;14.10;45.10;;;;;;5092278;28;20454;-72
2022/03/22 11:12:52;;;;;;;45.10;41.23;;;14.20;45.50;;;;;;5092237;28;20822;-72
2022/03/22 11:15:21;;;;;;;43.87;40.40;;;14.40;45.10;;;;;;5092768;28;20464;-72
2022/03/22 11:17:51;;;;;;;44.67;40.50;;;14.50;44.40;;;;;;5092405;28;20819;-72
2022/03/22 11:20:18;;;;;;;48.27;43.77;;;14.50;44.00;;;;;;5092160;28;20513;-73
2022/03/22 11:22:52;;;;;;;44.07;39.77;;;14.60;43.70;;;;;;5092105;28;20841;-73
2022/03/22 11:25:24;;;;;;;42.43;38.77;;;14.60;43.20;;;;;;5092286;28;20528;-73
2022/03/22 11:27:57;;;;;;;43.50;40.00;;;14.80;43.20;;;;;;5092142;28;20548;-73
2022/03/22 11:30:25;;;;;;;44.10;40.40;;;14.80;43.30;;;;;;5092963;28;20450;-72
2022/03/22 11:35:45;;;;;;;44.57;40.60;;;15.00;43.00;;;;;;5062199;28;20534;-73
2022/03/22 11:38:13;;;;;;;44.43;40.60;;;15.00;42.70;;;;;;5095922;28;20452;-72
2022/03/22 11:43:42;;;;;;;41.33;37.83;;;15.10;42.40;;;;;;5095941;28;20460;-73
2022/03/22 11:46:09;;;;;;;45.27;41.03;;;15.20;42.30;;;;;;5095854;28;20929;-73
2022/03/22 11:48:39;;;;;;;44.33;40.23;;;15.30;41.80;;;;;;5095680;28;20540;-73
2022/03/22 11:51:07;;;;;;;42.87;39.47;;;15.40;41.10;;;;;;5095815;28;20446;-73
2022/03/22 11:53:43;;;;;;;43.20;39.67;;;15.50;40.70;;;;;;5095326;28;21058;-73
2022/03/22 11:56:10;;;;;;;44.93;41.07;;;15.60;40.20;;;;;;5095599;28;20938;-73
2022/03/22 11:58:38;;;;;;;42.73;39.60;;;15.60;40.00;;;;;;5095395;28;20453;-73
2022/03/22 12:01:16;;;;;;;44.07;40.63;;;15.50;40.10;;;;;;5095252;28;20501;-73
2022/03/22 12:03:51;;;;;;;42.53;39.33;;;15.60;40.30;;;;;;5095543;28;20520;-73
2022/03/22 12:06:18;;;;;;;43.57;39.97;;;15.60;39.70;;;;;;5095563;28;20449;-73
2022/03/22 12:08:47;;;;;;;45.13;41.43;;;15.70;39.60;;;;;;5095401;28;20454;-73
2022/03/22 12:11:16;;;;;;;44.23;40.40;;;15.80;39.20;;;;;;5095036;28;20538;-73
2022/03/22 12:13:48;;;;;;;44.97;41.37;;;15.60;39.00;;;;;;5095151;28;20473;-73
2022/03/22 12:16:15;;;;;;;43.80;40.20;;;15.70;38.90;;;;;;5095190;28;20532;-73
2022/03/22 12:18:42;;;;;;;43.03;39.43;;;15.60;39.00;;;;;;5095010;28;20457;-73
2022/03/22 12:21:17;;;;;;;42.80;39.30;;;15.80;38.20;;;;;;5094781;28;20473;-73
2022/03/22 12:23:45;;;;;;;40.83;37.83;;;15.80;37.80;;;;;;5094964;28;20857;-73
2022/03/22 12:26:13;;;;;;;44.00;40.20;;;15.70;37.80;;;;;;5095009;28;20517;-73
2022/03/22 12:28:48;;;;;;;41.63;38.20;;;15.70;37.90;;;;;;5094876;28;20457;-72
2022/03/22 12:31:15;;;;;;;42.93;39.83;;;15.80;38.20;;;;;;5094911;28;20445;-72
2022/03/22 12:33:43;;;;;;;43.00;39.50;;;15.90;37.70;;;;;;5094935;28;20473;-73
2022/03/22 12:36:10;;;;;;;45.47;41.87;;;15.90;38.00;;;;;;5094813;28;20476;-73
2022/03/22 12:38:36;;;;;;;42.03;38.93;;;15.80;37.80;;;;;;5094718;28;20951;-73
2022/03/22 12:41:04;;;;;;;45.00;41.30;;;15.90;38.20;;;;;;5094596;28;20506;-73
2022/03/22 12:43:32;;;;;;;42.10;38.90;;;16.10;37.90;;;;;;5094146;28;20804;-73
2022/03/22 12:45:59;;;;;;;42.73;39.63;;;16.10;37.70;;;;;;5095012;28;20522;-73
2022/03/22 12:48:27;;;;;;;41.63;38.17;;;16.00;37.60;;;;;;5095048;28;20481;-73
2022/03/22 12:50:54;;;;;;;44.30;41.00;;;16.20;37.40;;;;;;5094449;28;20973;-73
2022/03/22 12:53:22;;;;;;;42.53;39.20;;;16.20;37.90;;;;;;5094385;28;20473;-73
2022/03/22 12:55:49;;;;;;;44.60;41.03;;;16.20;38.40;;;;;;5094496;28;20792;-72
2022/03/22 12:58:16;;;;;;;42.83;39.40;;;16.30;37.40;;;;;;5094432;28;20453;-73
2022/03/22 13:00:44;;;;;;;43.97;40.57;;;16.30;37.40;;;;;;5094525;28;20470;-73
2022/03/22 13:03:12;;;;;;;47.03;43.07;;;16.30;37.80;;;;;;5094353;28;20470;-73
2022/03/22 13:05:43;;;;;;;42.53;39.13;;;16.50;37.90;;;;;;5094535;28;20551;-73
2022/03/22 13:08:14;;;;;;;44.03;40.20;;;16.60;38.00;;;;;;5094343;28;20453;-73
2022/03/22 13:15:01;;;;;;;43.43;39.50;;;16.40;38.00;;;;;;5094300;28;20537;-73
2022/03/22 13:16:22;;;;;;;43.70;40.10;;;16.50;38.20;;;;;;5094123;28;20442;-73
2022/03/22 13:18:50;;;;;;;42.37;39.07;;;16.70;37.60;;;;;;5094033;28;20464;-73